Time;durP1;ratioP1;P1;durP2;ratioP2;P2;SDS_P1;SDS_P2;PMS_P1;PMS_P2;Temp;Humidity;BMP_temperature;BMP_pressure;BME280_temperature;BME280_humidity;BME280_pressure;Samples;Min_cycle;Max_cycle;Signal;HPM_P1;HPM_P2
2022/12/13 00:00:48;;;;;;;;;;;-3.50;93.10;;;;;;5091759;28;1072;-74
2022/12/13 00:03:16;;;;;;;;;;;-3.50;93.20;;;;;;5081879;28;1993;-75
2022/12/13 00:05:44;;;;;;;;;;;-3.30;93.10;;;;;;5081593;28;1037;-76
2022/12/13 00:08:13;;;;;;;;;;;-3.50;92.90;;;;;;5087508;28;1047;-72
2022/12/13 00:10:41;;;;;;;;;;;-3.60;92.80;;;;;;5090165;28;1084;-74
2022/12/13 00:13:09;;;;;;;;;;;-3.60;93.30;;;;;;5086126;28;1671;-69
2022/12/13 00:15:36;;;;;;;;;;;-3.90;93.30;;;;;;5080593;28;1596;-75
2022/12/13 00:18:04;;;;;;;;;;;-3.80;93.60;;;;;;5093340;28;1584;-76
2022/12/13 00:20:32;;;;;;;;;;;-3.70;93.40;;;;;;5095274;28;1161;-75
2022/12/13 00:23:00;;;;;;;;;;;-3.70;93.20;;;;;;5101101;28;1891;-75
2022/12/13 00:25:29;;;;;;;;;;;-3.60;93.10;;;;;;5099004;28;1097;-74
2022/12/13 00:27:56;;;;;;;;;;;-3.70;93.20;;;;;;5098890;28;974;-75
2022/12/13 00:30:24;;;;;;;;;;;-3.70;93.30;;;;;;5097492;28;1148;-73
2022/12/13 00:32:52;;;;;;;;;;;-3.70;93.30;;;;;;5098085;28;1505;-70
2022/12/13 00:35:19;;;;;;;;;;;-3.70;93.20;;;;;;5101559;28;998;-70
2022/12/13 00:37:47;;;;;;;;;;;-3.70;93.10;;;;;;5106122;28;1050;-71
2022/12/13 00:40:15;;;;;;;;;;;-3.60;92.80;;;;;;5095100;28;1692;-70
2022/12/13 00:42:44;;;;;;;;;;;-3.60;93.10;;;;;;5098683;28;1358;-70
2022/12/13 00:45:12;;;;;;;;;;;-3.60;93.20;;;;;;5094687;28;2357;-73
2022/12/13 00:47:40;;;;;;;;;;;-3.60;93.10;;;;;;5084693;28;1780;-74
2022/12/13 00:50:08;;;;;;;;;;;-3.60;93.00;;;;;;5092772;28;1113;-74
2022/12/13 00:52:36;;;;;;;;;;;-3.50;93.00;;;;;;5082963;28;1892;-72
2022/12/13 00:55:04;;;;;;;;;;;-3.50;92.90;;;;;;5094410;28;1072;-71
2022/12/13 00:57:32;;;;;;;;;;;-3.50;92.80;;;;;;5081246;28;1116;-71
2022/12/13 01:00:01;;;;;;;;;;;-3.50;92.70;;;;;;5086688;28;1997;-72
2022/12/13 01:02:29;;;;;;;;;;;-3.50;92.80;;;;;;5091295;28;1360;-73
2022/12/13 01:04:56;;;;;;;;;;;-3.50;92.70;;;;;;5084921;28;1996;-71
2022/12/13 01:07:24;;;;;;;;;;;-3.60;92.80;;;;;;5085097;28;997;-71
2022/12/13 01:09:52;;;;;;;;;;;-3.60;92.70;;;;;;5084677;28;1506;-70
2022/12/13 01:12:19;;;;;;;;;;;-3.60;92.60;;;;;;5084879;28;1029;-73
2022/12/13 01:14:47;;;;;;;;;;;-3.70;92.60;;;;;;5085569;28;1397;-72
2022/12/13 01:17:23;;;;;;;;;;;-3.70;92.50;;;;;;5084301;28;1021;-72
2022/12/13 01:19:51;;;;;;;;;;;-3.70;92.60;;;;;;5084086;28;1165;-71
2022/12/13 01:22:19;;;;;;;;;;;-3.60;92.70;;;;;;5079824;28;1219;-71
2022/12/13 01:24:46;;;;;;;;;;;-3.60;92.70;;;;;;5085647;28;1910;-71
2022/12/13 01:27:14;;;;;;;;;;;-3.60;92.80;;;;;;5079713;28;2073;-71
2022/12/13 01:29:41;;;;;;;;;;;-3.50;92.80;;;;;;5084395;28;1064;-71
2022/12/13 01:32:09;;;;;;;;;;;-3.50;92.70;;;;;;5085167;28;1071;-70
2022/12/13 01:34:38;;;;;;;;;;;-3.40;92.80;;;;;;5084558;28;1292;-69
2022/12/13 01:37:06;;;;;;;;;;;-3.40;92.50;;;;;;5076815;28;1013;-69
2022/12/13 01:39:33;;;;;;;;;;;-3.40;92.60;;;;;;5078132;28;1017;-69
2022/12/13 01:42:05;;;;;;;;;;;-3.50;92.50;;;;;;5087096;28;1270;-69
2022/12/13 01:44:58;;;;;;;;;;;-3.60;92.60;;;;;;5083857;28;1992;-70
2022/12/13 01:47:28;;;;;;;;;;;-3.70;92.60;;;;;;5086771;28;1147;-70
2022/12/13 01:49:58;;;;;;;;;;;-3.80;93.10;;;;;;5086971;28;1111;-70
2022/12/13 01:52:28;;;;;;;;;;;-3.60;93.40;;;;;;5084160;28;1290;-70
2022/12/13 01:54:56;;;;;;;;;;;-3.90;93.20;;;;;;5081594;28;2046;-70
2022/12/13 01:57:30;;;;;;;;;;;-3.80;92.90;;;;;;5083845;28;1092;-70
2022/12/13 01:59:58;;;;;;;;;;;-3.80;93.00;;;;;;5088016;28;1056;-70
2022/12/13 02:02:26;;;;;;;;;;;-3.70;92.90;;;;;;5094361;28;1353;-71
2022/12/13 02:04:56;;;;;;;;;;;-3.70;92.90;;;;;;5097274;28;1977;-70
2022/12/13 02:07:26;;;;;;;;;;;-3.70;92.80;;;;;;5085276;28;1500;-70
2022/12/13 02:09:55;;;;;;;;;;;-3.70;92.70;;;;;;5081868;28;1021;-70
2022/12/13 02:17:41;;;;;;;;;;;-3.60;92.60;;;;;;5371644;22;2077;-70
2022/12/13 02:20:26;;;;;;;;;;;-3.60;92.60;;;;;;5042848;28;1100;-69
2022/12/13 02:23:06;;;;;;;;;;;-3.70;92.60;;;;;;5042042;28;1225;-69
2022/12/13 02:25:44;;;;;;;;;;;-3.70;92.50;;;;;;5044846;28;1979;-68
2022/12/13 02:28:19;;;;;;;;;;;-3.60;92.70;;;;;;5037105;28;1014;-70
2022/12/13 02:31:03;;;;;;;;;;;-3.60;92.70;;;;;;5042016;28;1064;-69
2022/12/13 02:33:36;;;;;;;;;;;-3.60;92.60;;;;;;5044344;28;1338;-71
2022/12/13 02:36:08;;;;;;;;;;;-3.60;92.60;;;;;;5045369;28;969;-69
2022/12/13 02:38:38;;;;;;;;;;;-3.60;92.60;;;;;;5040952;28;1122;-69
2022/12/13 02:41:12;;;;;;;;;;;-3.60;92.60;;;;;;5035941;28;1151;-70
2022/12/13 02:43:42;;;;;;;;;;;-3.60;92.60;;;;;;5045871;28;1523;-71
2022/12/13 02:46:14;;;;;;;;;;;-3.60;92.60;;;;;;5034740;28;1887;-71
2022/12/13 02:48:42;;;;;;;;;;;-3.70;92.50;;;;;;5036429;28;965;-69
2022/12/13 02:51:11;;;;;;;;;;;-3.70;92.60;;;;;;5037694;28;1119;-69
2022/12/13 02:53:40;;;;;;;;;;;-3.70;92.60;;;;;;5041489;28;1306;-70
2022/12/13 02:56:08;;;;;;;;;;;-3.70;92.50;;;;;;5040947;28;1076;-67
2022/12/13 02:58:37;;;;;;;;;;;-3.70;92.40;;;;;;5040101;28;2021;-69
2022/12/13 03:01:11;;;;;;;;;;;-3.70;92.60;;;;;;5041768;28;1077;-71
2022/12/13 03:04:01;;;;;;;;;;;-3.70;92.50;;;;;;5038788;28;1458;-69
2022/12/13 03:06:33;;;;;;;;;;;-3.70;92.50;;;;;;5045253;28;1915;-70
2022/12/13 03:09:09;;;;;;;;;;;-3.60;92.40;;;;;;5046904;28;1005;-69
2022/12/13 03:14:30;;;;;;;;;;;-3.60;92.80;;;;;;5045457;28;1359;-69
2022/12/13 03:17:00;;;;;;;;;;;-3.60;92.40;;;;;;5038161;28;1012;-70
2022/12/13 03:19:29;;;;;;;;;;;-3.60;92.40;;;;;;5042698;28;1016;-70
2022/12/13 03:21:57;;;;;;;;;;;-3.70;92.50;;;;;;5043475;28;1017;-69
2022/12/13 03:24:24;;;;;;;;;;;-3.60;92.50;;;;;;5047658;28;1902;-69
2022/12/13 03:26:52;;;;;;;;;;;-3.60;92.40;;;;;;5045118;28;1030;-69
2022/12/13 03:29:19;;;;;;;;;;;-3.60;92.40;;;;;;5046764;28;1144;-68
2022/12/13 03:31:51;;;;;;;;;;;-3.60;92.30;;;;;;5050776;28;1076;-69
2022/12/13 03:34:19;;;;;;;;;;;-3.60;92.20;;;;;;5037877;28;1290;-70
2022/12/13 03:36:51;;;;;;;;;;;-3.60;92.20;;;;;;5043464;28;1207;-71
2022/12/13 03:39:19;;;;;;;;;;;-3.70;92.30;;;;;;5042275;28;1013;-70
2022/12/13 03:41:47;;;;;;;;;;;-3.60;92.40;;;;;;5042007;28;1096;-71
2022/12/13 03:44:14;;;;;;;;;;;-3.60;92.30;;;;;;5044997;28;2023;-68
2022/12/13 03:46:42;;;;;;;;;;;-3.60;92.50;;;;;;5056605;28;1898;-73
2022/12/13 03:49:10;;;;;;;;;;;-3.60;92.40;;;;;;5062203;28;1159;-75
2022/12/13 03:51:43;;;;;;;;;;;-3.60;92.40;;;;;;5057346;28;1018;-73
2022/12/13 03:54:12;;;;;;;;;;;-3.50;92.40;;;;;;5061148;28;1317;-72
2022/12/13 03:56:40;;;;;;;;;;;-3.50;92.50;;;;;;5046466;28;1140;-72
2022/12/13 03:59:07;;;;;;;;;;;-3.50;92.50;;;;;;5052100;28;1029;-73
2022/12/13 04:01:35;;;;;;;;;;;-3.50;92.60;;;;;;5055577;28;1147;-72
2022/12/13 04:04:03;;;;;;;;;;;-3.40;92.60;;;;;;5056774;28;1544;-72
2022/12/13 04:06:30;;;;;;;;;;;-3.30;92.60;;;;;;5062260;28;1890;-71
2022/12/13 04:09:00;;;;;;;;;;;-3.20;92.40;;;;;;5058609;28;2136;-72
2022/12/13 04:14:13;;;;;;;;;;;-3.10;92.60;;;;;;5064752;28;1355;-71
2022/12/13 04:16:49;;;;;;;;;;;-3.10;92.70;;;;;;5048330;28;997;-71
2022/12/13 04:19:17;;;;;;;;;;;-3.00;92.50;;;;;;5052945;28;1089;-71
2022/12/13 04:21:50;;;;;;;;;;;-2.90;92.50;;;;;;5050744;28;1149;-72
2022/12/13 04:24:18;;;;;;;;;;;-2.90;92.70;;;;;;5045369;28;1263;-71
2022/12/13 04:26:47;;;;;;;;;;;-2.70;92.70;;;;;;5050078;28;1933;-70
2022/12/13 04:29:15;;;;;;;;;;;-2.80;92.60;;;;;;5049549;28;1199;-71
2022/12/13 04:31:42;;;;;;;;;;;-2.70;92.50;;;;;;5045625;28;1098;-71
2022/12/13 04:34:10;;;;;;;;;;;-2.80;92.60;;;;;;5039996;28;1293;-71
2022/12/13 04:36:37;;;;;;;;;;;-2.80;92.80;;;;;;5045501;28;1164;-71
2022/12/13 04:39:05;;;;;;;;;;;-2.70;92.60;;;;;;5047689;28;1104;-71
2022/12/13 04:41:51;;;;;;;;;;;-2.70;92.40;;;;;;5043151;28;1017;-71
2022/12/13 04:44:19;;;;;;;;;;;-2.70;92.20;;;;;;5039129;28;1308;-71
2022/12/13 04:46:55;;;;;;;;;;;-2.40;92.50;;;;;;5044345;28;2001;-70
2022/12/13 04:49:28;;;;;;;;;;;-2.60;92.40;;;;;;5046000;28;1089;-71
2022/12/13 04:51:56;;;;;;;;;;;-2.50;92.20;;;;;;5035569;28;1033;-71
2022/12/13 04:54:28;;;;;;;;;;;-2.50;92.20;;;;;;5042519;28;1326;-70
2022/12/13 04:57:05;;;;;;;;;;;-2.40;92.40;;;;;;5042339;28;1133;-69
2022/12/13 04:59:33;;;;;;;;;;;-2.40;92.30;;;;;;5040403;28;1080;-70
2022/12/13 05:02:00;;;;;;;;;;;-2.40;92.10;;;;;;5042141;28;1235;-69
2022/12/13 05:04:28;;;;;;;;;;;-2.40;92.30;;;;;;5046698;28;1747;-72
2022/12/13 05:07:01;;;;;;;;;;;-2.40;92.30;;;;;;5044296;28;2270;-73
2022/12/13 05:09:28;;;;;;;;;;;-2.30;92.40;;;;;;5042683;28;2216;-72
2022/12/13 05:11:56;;;;;;;;;;;-2.30;92.60;;;;;;5043216;28;2244;-67
2022/12/13 05:14:30;;;;;;;;;;;-2.60;92.50;;;;;;5043777;28;2216;-74
2022/12/13 05:16:57;;;;;;;;;;;-2.80;93.50;;;;;;5035759;28;2248;-72
2022/12/13 05:19:25;;;;;;;;;;;-2.70;93.80;;;;;;5041452;28;946;-79
2022/12/13 05:21:57;;;;;;;;;;;-2.60;94.10;;;;;;5037508;28;2286;-68
2022/12/13 05:24:29;;;;;;;;;;;-2.70;93.80;;;;;;5041178;28;2527;-69
2022/12/13 05:26:57;;;;;;;;;;;-2.60;94.00;;;;;;5040712;28;2196;-68
2022/12/13 05:29:26;;;;;;;;;;;-2.80;94.30;;;;;;5040620;28;2242;-68
2022/12/13 05:31:55;;;;;;;;;;;-2.70;94.70;;;;;;5041589;28;2283;-73
2022/12/13 05:34:23;;;;;;;;;;;-2.60;94.70;;;;;;5044521;28;2081;-73
2022/12/13 05:36:51;;;;;;;;;;;-2.30;94.10;;;;;;5045026;28;1143;-74
2022/12/13 05:39:18;;;;;;;;;;;-2.20;93.60;;;;;;5035887;28;2086;-75
2022/12/13 05:41:57;;;;;;;;;;;-2.10;93.30;;;;;;5036294;28;2278;-74
2022/12/13 05:44:29;;;;;;;;;;;-2.10;93.30;;;;;;5042217;28;2224;-75
2022/12/13 05:46:58;;;;;;;;;;;-2.00;93.20;;;;;;5043970;28;1973;-75
2022/12/13 05:49:29;;;;;;;;;;;-2.00;93.00;;;;;;5041626;28;2265;-75
2022/12/13 05:51:56;;;;;;;;;;;-1.70;93.00;;;;;;5043718;28;1006;-74
2022/12/13 05:54:24;;;;;;;;;;;-1.90;92.90;;;;;;5042293;28;2452;-74
2022/12/13 05:56:51;;;;;;;;;;;-1.90;92.80;;;;;;5041380;28;1499;-74
2022/12/13 05:59:19;;;;;;;;;;;-1.80;92.80;;;;;;5046711;28;1081;-74
2022/12/13 06:01:47;;;;;;;;;;;-1.90;92.90;;;;;;5035608;28;1064;-74
2022/12/13 06:04:16;;;;;;;;;;;-1.80;92.70;;;;;;5043607;28;1330;-74
2022/12/13 06:06:49;;;;;;;;;;;-1.80;92.60;;;;;;5047568;28;1910;-76
2022/12/13 06:09:18;;;;;;;;;;;-1.50;92.80;;;;;;5047454;28;1113;-71
2022/12/13 06:11:45;;;;;;;;;;;-1.90;92.70;;;;;;5045851;28;2537;-72
2022/12/13 06:14:13;;;;;;;;;;;-1.90;92.70;;;;;;5041172;28;1504;-72
2022/12/13 06:16:50;;;;;;;;;;;-1.80;92.60;;;;;;5042895;28;1385;-74
2022/12/13 06:19:19;;;;;;;;;;;-1.80;92.70;;;;;;5043311;28;1110;-72
2022/12/13 06:21:47;;;;;;;;;;;-1.80;92.50;;;;;;5042964;28;1057;-72
2022/12/13 06:24:15;;;;;;;;;;;-1.80;92.50;;;;;;5040416;28;2216;-72
2022/12/13 06:26:42;;;;;;;;;;;-1.80;92.40;;;;;;5041247;28;2001;-71
2022/12/13 06:29:12;;;;;;;;;;;-1.70;92.30;;;;;;5042781;28;1100;-73
2022/12/13 06:31:52;;;;;;;;;;;-1.90;92.30;;;;;;5040799;28;1093;-73
2022/12/13 06:34:21;;;;;;;;;;;-1.80;93.50;;;;;;5043680;28;1366;-73
2022/12/13 06:36:49;;;;;;;;;;;-1.90;93.00;;;;;;5037515;28;1199;-72
2022/12/13 06:39:16;;;;;;;;;;;-1.80;92.80;;;;;;5045154;28;1084;-72
2022/12/13 06:41:44;;;;;;;;;;;-1.90;92.60;;;;;;5046778;28;1059;-72
2022/12/13 06:44:12;;;;;;;;;;;-1.90;92.50;;;;;;5046931;28;1296;-71
2022/12/13 06:46:40;;;;;;;;;;;-2.00;92.60;;;;;;5046749;28;1906;-71
2022/12/13 06:49:07;;;;;;;;;;;-1.90;92.70;;;;;;5045853;28;1042;-71
2022/12/13 06:51:36;;;;;;;;;;;-2.00;92.80;;;;;;5039164;28;1085;-72
2022/12/13 06:54:04;;;;;;;;;;;-1.60;92.70;;;;;;5039788;28;1272;-72
2022/12/13 06:56:32;;;;;;;;;;;-1.90;92.80;;;;;;5039513;28;1097;-71
2022/12/13 06:59:00;;;;;;;;;;;-1.80;92.70;;;;;;5037675;28;1025;-72
2022/12/13 07:01:29;;;;;;;;;;;-1.80;92.90;;;;;;5046639;28;1096;-73
2022/12/13 07:04:03;;;;;;;;;;;-1.70;92.60;;;;;;5047800;28;1291;-71
2022/12/13 07:06:52;;;;;;;;;;;-1.70;92.40;;;;;;5051205;28;1995;-71
2022/12/13 07:09:20;;;;;;;;;;;-1.60;92.50;;;;;;5044198;28;1068;-72
2022/12/13 07:11:48;;;;;;;;;;;-1.40;92.40;;;;;;5050594;28;2288;-73
2022/12/13 07:14:19;;;;;;;;;;;-1.60;92.40;;;;;;5045401;28;1431;-73
2022/12/13 07:16:46;;;;;;;;;;;-1.70;92.10;;;;;;5036930;28;1140;-73
2022/12/13 07:19:14;;;;;;;;;;;-1.70;92.30;;;;;;5039274;28;1301;-75
2022/12/13 07:21:51;;;;;;;;;;;-1.60;92.30;;;;;;5042590;28;1865;-72
2022/12/13 07:24:20;;;;;;;;;;;-1.70;92.20;;;;;;5041524;28;2155;-74
2022/12/13 07:26:47;;;;;;;;;;;-1.50;92.30;;;;;;5037696;28;1934;-73
2022/12/13 07:29:15;;;;;;;;;;;-1.70;92.10;;;;;;5045545;28;1496;-73
2022/12/13 07:31:49;;;;;;;;;;;-1.50;92.10;;;;;;5048760;28;1072;-73
2022/12/13 07:34:17;;;;;;;;;;;-1.50;92.00;;;;;;5045363;28;1402;-71
2022/12/13 07:36:44;;;;;;;;;;;-1.50;91.90;;;;;;5041898;28;1081;-71
2022/12/13 07:39:12;;;;;;;;;;;-1.60;92.20;;;;;;5048908;28;1621;-73
2022/12/13 07:41:41;;;;;;;;;;;-1.60;92.10;;;;;;5046445;28;1057;-72
2022/12/13 07:44:09;;;;;;;;;;;-1.60;92.30;;;;;;5039613;28;2220;-73
2022/12/13 07:46:36;;;;;;;;;;;-1.60;92.30;;;;;;5044776;28;2090;-72
2022/12/13 07:49:05;;;;;;;;;;;-1.60;92.20;;;;;;5044275;28;1953;-75
2022/12/13 07:51:32;;;;;;;;;;;-1.50;92.30;;;;;;5038169;28;1551;-74
2022/12/13 07:54:00;;;;;;;;;;;-1.50;92.10;;;;;;5039651;28;2220;-73
2022/12/13 07:56:33;;;;;;;;;;;-1.40;92.10;;;;;;5043016;28;1061;-69
2022/12/13 07:59:03;;;;;;;;;;;-1.70;92.30;;;;;;5047691;28;1563;-68
2022/12/13 08:01:33;;;;;;;;;;;-1.70;93.20;;;;;;5041504;28;1167;-70
2022/12/13 08:04:04;;;;;;;;;;;-1.80;93.00;;;;;;5041820;28;1474;-71
2022/12/13 08:06:34;;;;;;;;;;;-1.70;92.80;;;;;;5044254;28;2063;-71
2022/12/13 08:09:02;;;;;;;;;;;-1.60;92.80;;;;;;5044583;28;1910;-70
2022/12/13 08:11:30;;;;;;;;;;;-1.50;92.70;;;;;;5036735;28;1161;-70
2022/12/13 08:13:58;;;;;;;;;;;-1.30;92.60;;;;;;5036727;28;1328;-72
2022/12/13 08:16:26;;;;;;;;;;;-1.30;92.50;;;;;;5046780;28;2239;-72
2022/12/13 08:18:56;;;;;;;;;;;-1.20;92.30;;;;;;5042043;28;1591;-71
2022/12/13 08:21:33;;;;;;;;;;;-1.20;92.20;;;;;;5044959;28;1394;-71
2022/12/13 08:24:20;;;;;;;;;;;-1.10;92.40;;;;;;5046589;28;1309;-72
2022/12/13 08:26:48;;;;;;;;;;;-1.10;92.20;;;;;;5042624;28;1014;-73
2022/12/13 08:29:15;;;;;;;;;;;-1.00;92.10;;;;;;5037728;28;1958;-71
2022/12/13 08:32:01;;;;;;;;;;;-0.80;91.90;;;;;;5044302;28;1521;-71
2022/12/13 08:34:30;;;;;;;;;;;-0.90;92.20;;;;;;5046034;28;1268;-71
2022/12/13 08:36:58;;;;;;;;;;;-0.80;92.00;;;;;;5044580;28;994;-71
2022/12/13 08:39:29;;;;;;;;;;;-0.50;92.10;;;;;;5046307;28;1072;-70
2022/12/13 08:42:01;;;;;;;;;;;-0.80;92.00;;;;;;5042869;28;1264;-71
2022/12/13 08:44:45;;;;;;;;;;;-0.80;92.00;;;;;;5045121;28;1713;-71
2022/12/13 08:47:15;;;;;;;;;;;-0.70;91.80;;;;;;5042691;28;1974;-73
2022/12/13 08:49:52;;;;;;;;;;;-0.70;91.70;;;;;;5044996;28;2180;-72
2022/12/13 08:52:21;;;;;;;;;;;-0.70;91.80;;;;;;5040001;28;1773;-72
2022/12/13 08:54:49;;;;;;;;;;;-0.70;91.70;;;;;;5041621;28;1378;-71
2022/12/13 08:57:16;;;;;;;;;;;-0.60;91.60;;;;;;5048683;28;1102;-71
2022/12/13 08:59:44;;;;;;;;;;;-0.70;91.80;;;;;;5044012;28;1624;-71
2022/12/13 09:02:12;;;;;;;;;;;-0.70;91.70;;;;;;5043084;28;1025;-72
2022/12/13 09:04:42;;;;;;;;;;;-0.60;91.60;;;;;;5039939;28;1379;-72
2022/12/13 09:07:09;;;;;;;;;;;-0.60;91.70;;;;;;5040570;28;1180;-72
2022/12/13 09:09:37;;;;;;;;;;;-0.80;91.60;;;;;;5034430;28;2235;-72
2022/12/13 09:12:05;;;;;;;;;;;-0.70;91.50;;;;;;5044424;28;1014;-71
2022/12/13 09:14:38;;;;;;;;;;;-0.70;91.60;;;;;;5041161;28;2235;-72
2022/12/13 09:17:12;;;;;;;;;;;-0.80;91.30;;;;;;5043375;28;1025;-72
2022/12/13 09:19:52;;;;;;;;;;;-1.00;91.60;;;;;;5046906;28;1014;-71
2022/12/13 09:22:25;;;;;;;;;;;-1.00;92.00;;;;;;5053883;28;1044;-70
2022/12/13 09:25:00;;;;;;;;;;;-1.10;92.20;;;;;;5047744;28;1298;-72
2022/12/13 09:27:29;;;;;;;;;;;-1.00;92.20;;;;;;5043623;28;1162;-70
2022/12/13 09:29:57;;;;;;;;;;;-0.90;92.20;;;;;;5038275;28;1908;-72
2022/12/13 09:32:26;;;;;;;;;;;-0.70;92.10;;;;;;5042437;28;1048;-71
2022/12/13 09:34:55;;;;;;;;;;;-0.60;91.80;;;;;;5042657;28;1139;-71
2022/12/13 09:37:23;;;;;;;;;;;-0.50;91.50;;;;;;5039610;28;1101;-72
2022/12/13 09:39:50;;;;;;;;;;;-0.40;91.50;;;;;;5037683;28;1094;-69
2022/12/13 09:42:23;;;;;;;;;;;-0.40;91.40;;;;;;5042303;28;2297;-70
2022/12/13 09:44:58;;;;;;;;;;;-0.40;91.20;;;;;;5038257;28;2016;-70
2022/12/13 09:47:31;;;;;;;;;;;-0.30;91.00;;;;;;5040030;28;2271;-70
2022/12/13 09:50:06;;;;;;;;;;;-0.20;90.90;;;;;;5046071;28;1977;-70
2022/12/13 09:52:41;;;;;;;;;;;-0.10;90.70;;;;;;5046598;28;1795;-69
2022/12/13 09:55:18;;;;;;;;;;;0.00;90.70;;;;;;5045966;28;1009;-70
2022/12/13 09:57:45;;;;;;;;;;;-0.10;90.50;;;;;;5043530;28;1488;-69
2022/12/13 10:00:15;;;;;;;;;;;0.00;90.50;;;;;;5044357;28;1096;-69
2022/12/13 10:02:44;;;;;;;;;;;0.00;90.50;;;;;;5034126;28;1389;-69
2022/12/13 10:05:26;;;;;;;;;;;0.00;90.20;;;;;;5042812;28;1067;-69
2022/12/13 10:08:06;;;;;;;;;;;0.00;90.20;;;;;;5042017;28;1991;-69
2022/12/13 10:10:34;;;;;;;;;;;0.00;90.20;;;;;;5035254;28;1013;-69
2022/12/13 10:13:08;;;;;;;;;;;0.00;90.30;;;;;;5043108;28;2338;-68
2022/12/13 10:15:37;;;;;;;;;;;0.00;89.80;;;;;;5044181;28;990;-70
2022/12/13 10:18:06;;;;;;;;;;;0.10;89.50;;;;;;5040041;28;1702;-70
2022/12/13 10:20:35;;;;;;;;;;;0.20;89.30;;;;;;5042861;28;1591;-70
2022/12/13 10:23:03;;;;;;;;;;;0.60;89.90;;;;;;5045054;28;1288;-70
2022/12/13 10:25:53;;;;;;;;;;;0.30;90.00;;;;;;5050299;28;1654;-69
2022/12/13 10:28:31;;;;;;;;;;;0.40;89.20;;;;;;5042625;28;1989;-68
2022/12/13 10:30:59;;;;;;;;;;;0.60;90.00;;;;;;5040643;28;1775;-70
2022/12/13 10:33:29;;;;;;;;;;;0.60;89.20;;;;;;5040982;28;1390;-70
2022/12/13 10:36:06;;;;;;;;;;;0.60;88.90;;;;;;5042088;28;1083;-69
2022/12/13 10:38:35;;;;;;;;;;;0.60;89.10;;;;;;5046170;28;1097;-71
2022/12/13 10:41:03;;;;;;;;;;;0.70;88.50;;;;;;5044217;28;2046;-70
2022/12/13 10:43:31;;;;;;;;;;;0.80;88.50;;;;;;5048642;28;1504;-69
2022/12/13 10:46:00;;;;;;;;;;;0.90;87.40;;;;;;5047208;28;1029;-69
2022/12/13 10:48:33;;;;;;;;;;;0.90;87.20;;;;;;5047607;28;1908;-68
2022/12/13 10:51:09;;;;;;;;;;;1.00;87.10;;;;;;5045306;28;1127;-69
2022/12/13 10:53:38;;;;;;;;;;;1.00;87.50;;;;;;5047075;28;1298;-70
2022/12/13 10:56:15;;;;;;;;;;;1.10;86.90;;;;;;5042504;28;2267;-69
2022/12/13 10:58:52;;;;;;;;;;;1.00;87.20;;;;;;5042515;28;1022;-69
2022/12/13 11:01:21;;;;;;;;;;;1.00;87.00;;;;;;5038850;28;1077;-68
2022/12/13 11:03:59;;;;;;;;;;;1.10;86.60;;;;;;5047297;28;1284;-69
2022/12/13 11:06:40;;;;;;;;;;;1.30;86.20;;;;;;5050997;28;1633;-68
2022/12/13 11:09:13;;;;;;;;;;;1.20;85.50;;;;;;5050033;28;1949;-70
2022/12/13 11:11:50;;;;;;;;;;;1.20;85.80;;;;;;5050533;28;1286;-70
2022/12/13 11:14:26;;;;;;;;;;;1.30;85.80;;;;;;5047582;28;2309;-70
2022/12/13 11:17:04;;;;;;;;;;;1.40;86.20;;;;;;5045122;28;989;-69
2022/12/13 11:19:36;;;;;;;;;;;1.30;85.80;;;;;;5043062;28;1090;-70
2022/12/13 11:22:07;;;;;;;;;;;1.60;86.10;;;;;;5045791;28;1192;-69
2022/12/13 11:24:36;;;;;;;;;;;1.30;86.40;;;;;;5038484;28;1232;-70
2022/12/13 11:27:14;;;;;;;;;;;1.40;85.50;;;;;;5038140;28;2208;-70
2022/12/13 11:29:49;;;;;;;;;;;1.50;85.20;;;;;;5046531;28;1918;-70
2022/12/13 11:32:22;;;;;;;;;;;1.40;85.40;;;;;;5045404;28;1192;-69
2022/12/13 11:34:55;;;;;;;;;;;1.30;85.30;;;;;;5038521;28;1378;-69
2022/12/13 11:37:28;;;;;;;;;;;1.40;85.10;;;;;;5042086;28;1216;-69
2022/12/13 11:39:58;;;;;;;;;;;1.40;85.70;;;;;;5038132;28;1638;-68
2022/12/13 11:42:30;;;;;;;;;;;1.30;85.90;;;;;;5040263;28;2219;-69
2022/12/13 11:45:01;;;;;;;;;;;1.40;85.10;;;;;;5038690;28;2216;-70
2022/12/13 11:47:33;;;;;;;;;;;1.40;84.80;;;;;;5036987;28;2424;-69
2022/12/13 11:50:02;;;;;;;;;;;1.30;84.20;;;;;;5040854;28;2223;-68
2022/12/13 11:52:35;;;;;;;;;;;1.40;84.60;;;;;;5047673;28;1286;-68
2022/12/13 11:55:04;;;;;;;;;;;1.40;83.90;;;;;;5044682;28;1621;-68
2022/12/13 11:57:37;;;;;;;;;;;1.30;84.10;;;;;;5040413;28;1551;-68
2022/12/13 12:00:09;;;;;;;;;;;1.40;84.30;;;;;;5038276;28;1121;-67
2022/12/13 12:02:41;;;;;;;;;;;1.40;84.20;;;;;;5041185;28;1292;-69
2022/12/13 12:05:27;;;;;;;;;;;1.50;84.20;;;;;;5044446;28;1018;-68
2022/12/13 12:08:01;;;;;;;;;;;1.40;84.50;;;;;;5045838;28;1257;-69
2022/12/13 12:10:51;;;;;;;;;;;1.30;84.50;;;;;;5043702;28;1910;-69
2022/12/13 12:13:21;;;;;;;;;;;1.30;84.50;;;;;;5047453;28;1389;-69
2022/12/13 12:15:52;;;;;;;;;;;1.40;84.70;;;;;;5046731;28;1089;-69
2022/12/13 12:18:21;;;;;;;;;;;1.30;85.20;;;;;;5042304;28;1015;-70
2022/12/13 12:20:56;;;;;;;;;;;1.40;85.20;;;;;;5043556;28;1979;-70
2022/12/13 12:23:30;;;;;;;;;;;1.40;85.20;;;;;;5040399;28;1374;-69
2022/12/13 12:26:03;;;;;;;;;;;1.40;84.80;;;;;;5040819;28;1119;-69
2022/12/13 12:28:37;;;;;;;;;;;1.50;84.80;;;;;;5042812;28;1144;-73
2022/12/13 12:31:20;;;;;;;;;;;1.60;84.10;;;;;;5039791;28;1977;-70
2022/12/13 12:33:53;;;;;;;;;;;1.70;83.90;;;;;;5043776;28;1220;-69
2022/12/13 12:36:29;;;;;;;;;;;1.40;83.90;;;;;;5042125;28;1616;-68
2022/12/13 12:39:05;;;;;;;;;;;1.40;84.10;;;;;;5044473;28;1849;-70
2022/12/13 12:41:41;;;;;;;;;;;1.40;83.90;;;;;;5038767;28;1662;-68
2022/12/13 12:44:16;;;;;;;;;;;1.30;84.40;;;;;;5044994;28;1875;-70
2022/12/13 12:46:50;;;;;;;;;;;1.10;83.70;;;;;;5038463;28;1654;-70
2022/12/13 12:49:55;;;;;;;;;;;1.00;84.10;;;;;;5045123;28;1906;-70
2022/12/13 12:52:28;;;;;;;;;;;1.00;84.30;;;;;;5042115;28;1224;-70
2022/12/13 12:55:02;;;;;;;;;;;1.00;84.50;;;;;;5041489;28;1737;-70
2022/12/13 12:57:38;;;;;;;;;;;1.00;84.80;;;;;;5040644;28;1458;-70
2022/12/13 13:00:10;;;;;;;;;;;0.90;84.80;;;;;;5042962;28;907;-70
2022/12/13 13:02:41;;;;;;;;;;;0.90;84.90;;;;;;5036862;28;1567;-70
2022/12/13 13:05:12;;;;;;;;;;;0.90;84.80;;;;;;5040072;28;1674;-70
2022/12/13 13:07:45;;;;;;;;;;;1.00;84.70;;;;;;5046401;28;1682;-70
2022/12/13 13:10:20;;;;;;;;;;;1.10;84.70;;;;;;5046730;28;1910;-70
2022/12/13 13:12:53;;;;;;;;;;;1.10;85.00;;;;;;5043142;28;1262;-70
2022/12/13 13:15:56;;;;;;;;;;;1.20;85.00;;;;;;5043738;28;1595;-69
2022/12/13 13:18:44;;;;;;;;;;;1.30;85.00;;;;;;5036334;28;1017;-73
2022/12/13 13:21:32;;;;;;;;;;;1.20;84.30;;;;;;5046714;28;1499;-70
2022/12/13 13:24:20;;;;;;;;;;;1.20;84.50;;;;;;5044043;28;1488;-72
2022/12/13 13:26:50;;;;;;;;;;;1.20;84.80;;;;;;5046287;28;1014;-71
2022/12/13 13:29:39;;;;;;;;;;;1.30;84.50;;;;;;5036449;28;1044;-71
2022/12/13 13:32:34;;;;;;;;;;;1.40;84.20;;;;;;5043410;28;1116;-73
2022/12/13 13:35:19;;;;;;;;;;;1.50;83.70;;;;;;5026303;28;1072;-72
2022/12/13 13:37:47;;;;;;;;;;;1.50;83.60;;;;;;5039579;28;1730;-72
2022/12/13 13:40:29;;;;;;;;;;;1.30;83.70;;;;;;5043017;28;1709;-70
2022/12/13 13:43:05;;;;;;;;;;;1.40;84.00;;;;;;5045065;28;1539;-70
2022/12/13 13:45:52;;;;;;;;;;;1.30;84.50;;;;;;5045615;28;1144;-71
2022/12/13 13:48:25;;;;;;;;;;;1.30;84.60;;;;;;5036615;28;945;-70
2022/12/13 13:51:13;;;;;;;;;;;1.20;84.40;;;;;;5041239;28;1985;-70
2022/12/13 13:54:00;;;;;;;;;;;1.10;84.90;;;;;;5035314;28;1338;-70
2022/12/13 13:56:34;;;;;;;;;;;1.20;85.10;;;;;;5042546;28;1452;-72
2022/12/13 13:59:16;;;;;;;;;;;1.20;84.60;;;;;;5041230;28;1160;-71
2022/12/13 14:01:59;;;;;;;;;;;1.40;84.80;;;;;;5039171;28;1129;-72
2022/12/13 14:04:43;;;;;;;;;;;1.30;85.20;;;;;;5042201;28;1381;-72
2022/12/13 14:07:29;;;;;;;;;;;1.40;85.50;;;;;;5007289;28;1141;-69
2022/12/13 14:10:06;;;;;;;;;;;1.30;85.10;;;;;;5034245;28;1047;-71
2022/12/13 14:12:52;;;;;;;;;;;1.40;84.70;;;;;;5041488;28;1946;-70
2022/12/13 14:15:44;;;;;;;;;;;1.40;85.10;;;;;;5044972;28;1021;-71
2022/12/13 14:18:31;;;;;;;;;;;1.30;85.30;;;;;;5045592;28;1837;-70
2022/12/13 14:21:02;;;;;;;;;;;1.20;85.40;;;;;;5043909;28;1063;-71
2022/12/13 14:23:37;;;;;;;;;;;1.20;85.60;;;;;;5041735;28;1430;-70
2022/12/13 14:26:16;;;;;;;;;;;1.30;85.30;;;;;;5042402;28;1065;-68
2022/12/13 14:28:47;;;;;;;;;;;1.40;85.30;;;;;;5039736;28;1588;-71
2022/12/13 14:31:18;;;;;;;;;;;1.30;85.40;;;;;;5039747;28;1985;-69
2022/12/13 14:33:50;;;;;;;;;;;1.30;85.50;;;;;;5036716;28;1674;-69
2022/12/13 14:36:25;;;;;;;;;;;1.30;85.50;;;;;;5039397;28;1714;-71
2022/12/13 14:38:58;;;;;;;;;;;1.30;85.50;;;;;;5040596;28;1702;-71
2022/12/13 14:41:26;;;;;;;;;;;1.40;86.00;;;;;;5040874;28;989;-72
2022/12/13 14:43:54;;;;;;;;;;;1.40;85.80;;;;;;5041538;28;1633;-69
2022/12/13 14:46:23;;;;;;;;;;;1.40;86.10;;;;;;5038615;28;1184;-71
2022/12/13 14:48:52;;;;;;;;;;;1.30;86.40;;;;;;5039666;28;1065;-71
2022/12/13 14:51:33;;;;;;;;;;;1.20;86.10;;;;;;5044835;28;1910;-72
2022/12/13 14:54:03;;;;;;;;;;;1.30;86.00;;;;;;5046788;28;1314;-71
2022/12/13 14:56:30;;;;;;;;;;;1.30;86.80;;;;;;5043640;28;1298;-71
2022/12/13 14:58:59;;;;;;;;;;;1.40;86.40;;;;;;5042986;28;1048;-70
2022/12/13 15:01:30;;;;;;;;;;;1.30;86.60;;;;;;5045034;28;1056;-70
2022/12/13 15:04:17;;;;;;;;;;;1.30;86.50;;;;;;5043411;28;1469;-70
2022/12/13 15:06:45;;;;;;;;;;;1.20;86.50;;;;;;5046417;28;1698;-70
2022/12/13 15:09:15;;;;;;;;;;;1.10;87.00;;;;;;5047406;28;1717;-70
2022/12/13 15:11:44;;;;;;;;;;;1.00;86.80;;;;;;5047230;28;1910;-70
2022/12/13 15:14:14;;;;;;;;;;;0.90;87.80;;;;;;5043798;28;1346;-71